Time;durP1;ratioP1;P1;durP2;ratioP2;P2;SDS_P1;SDS_P2;PMS_P1;PMS_P2;Temp;Humidity;BMP_temperature;BMP_pressure;BME280_temperature;BME280_humidity;BME280_pressure;Samples;Min_cycle;Max_cycle;Signal;HPM_P1;HPM_P2
2023/02/08 00:02:35;;;;;;;16.60;14.80;;;0.30;90.70;;;;;;10578998;27;20207;-81
2023/02/08 00:07:37;;;;;;;15.30;13.70;;;0.20;90.50;;;;;;10595829;27;20659;-82
2023/02/08 00:12:41;;;;;;;17.00;14.70;;;0.10;90.90;;;;;;10581240;27;20211;-82
2023/02/08 00:17:43;;;;;;;16.50;14.50;;;0.00;90.50;;;;;;10585985;27;20669;-82
2023/02/08 00:22:45;;;;;;;17.00;13.13;;;0.00;90.60;;;;;;10598097;27;20309;-81
2023/02/08 00:27:48;;;;;;;13.77;12.27;;;0.00;90.50;;;;;;10579808;27;20211;-80
2023/02/08 00:32:51;;;;;;;16.33;12.57;;;0.20;89.90;;;;;;10601281;27;20227;-81
2023/02/08 00:37:55;;;;;;;15.40;13.80;;;0.20;89.60;;;;;;10587300;27;20203;-79
2023/02/08 00:43:01;;;;;;;14.53;13.10;;;0.10;89.90;;;;;;10574810;27;20229;-81
2023/02/08 00:48:04;;;;;;;13.97;12.57;;;0.00;89.30;;;;;;10594262;27;20314;-81
2023/02/08 00:53:06;;;;;;;16.20;12.67;;;0.10;89.60;;;;;;10584024;27;20833;-81
2023/02/08 00:58:10;;;;;;;14.07;12.47;;;0.10;89.40;;;;;;10582070;27;20203;-80
2023/02/08 01:03:12;;;;;;;11.57;10.50;;;0.00;88.50;;;;;;10575533;27;20222;-80
2023/02/08 01:08:15;;;;;;;11.63;10.37;;;0.00;88.40;;;;;;10576848;27;20374;-80
2023/02/08 01:13:18;;;;;;;13.47;11.20;;;0.00;88.80;;;;;;10578284;27;20596;-82
2023/02/08 01:18:20;;;;;;;12.38;11.07;;;-0.10;88.00;;;;;;10595174;27;20191;-82
2023/02/08 01:23:22;;;;;;;11.77;10.53;;;0.10;87.60;;;;;;10578972;27;20226;-80
2023/02/08 01:28:26;;;;;;;11.10;10.00;;;0.00;87.40;;;;;;10572528;27;20301;-80
2023/02/08 01:33:31;;;;;;;11.07;10.03;;;-0.10;87.70;;;;;;10608860;27;20211;-83
2023/02/08 01:38:36;;;;;;;11.47;10.37;;;-0.20;88.70;;;;;;10574738;27;20194;-80
2023/02/08 01:44:05;;;;;;;10.93;9.93;;;-0.20;89.00;;;;;;10590699;27;20751;-81
2023/02/08 01:49:12;;;;;;;11.63;10.43;;;-0.20;87.40;;;;;;10608003;22;20237;-78
2023/02/08 01:54:18;;;;;;;10.67;9.57;;;-0.20;87.90;;;;;;10621466;27;20205;-78
2023/02/08 01:59:25;;;;;;;11.30;10.10;;;-0.30;86.30;;;;;;10616496;27;20221;-79
2023/02/08 02:04:28;;;;;;;11.10;10.00;;;-0.30;85.90;;;;;;10588494;28;20286;-79
2023/02/08 02:09:38;;;;;;;12.20;10.90;;;-0.50;87.20;;;;;;10589898;28;20219;-79
2023/02/08 02:14:42;;;;;;;13.37;11.13;;;-0.50;87.60;;;;;;10573479;28;20191;-79
2023/02/08 02:19:50;;;;;;;13.70;11.80;;;-0.60;89.80;;;;;;10557578;28;20784;-79
2023/02/08 02:25:37;;;;;;;13.13;11.87;;;-0.50;88.90;;;;;;10573825;28;20208;-79
2023/02/08 02:31:15;;;;;;;14.17;12.83;;;-0.50;89.70;;;;;;10491943;28;20228;-78
2023/02/08 02:36:28;;;;;;;13.73;12.33;;;-0.50;89.20;;;;;;10527242;28;20199;-79
2023/02/08 02:47:08;;;;;;;14.50;11.73;;;-0.30;89.10;;;;;;10552151;28;20659;-79
2023/02/08 02:52:15;;;;;;;13.00;11.60;;;-0.40;88.70;;;;;;10552233;28;20307;-79
2023/02/08 02:57:21;;;;;;;12.40;11.10;;;-0.50;88.80;;;;;;10551879;28;20253;-78
2023/02/08 03:02:24;;;;;;;12.00;10.73;;;-0.60;89.30;;;;;;10563875;28;20280;-78
2023/02/08 03:08:11;;;;;;;12.70;11.40;;;-0.60;89.50;;;;;;10568520;28;20211;-78
2023/02/08 03:13:25;;;;;;;13.00;11.00;;;-0.60;89.30;;;;;;10545264;28;20236;-79
2023/02/08 03:18:35;;;;;;;12.30;11.10;;;-0.70;88.40;;;;;;10573708;28;20195;-79
2023/02/08 03:23:46;;;;;;;12.60;10.77;;;-0.70;88.40;;;;;;10591422;28;20215;-79
2023/02/08 03:28:57;;;;;;;14.33;12.47;;;-0.80;88.30;;;;;;10564221;28;20302;-78
2023/02/08 03:34:04;;;;;;;11.60;10.40;;;-0.80;89.20;;;;;;10542984;28;20242;-79
2023/02/08 03:39:12;;;;;;;15.47;12.13;;;-0.90;89.00;;;;;;10597716;28;20873;-78
2023/02/08 03:44:19;;;;;;;13.70;10.30;;;-0.90;89.60;;;;;;10519312;28;20294;-78
2023/02/08 03:49:26;;;;;;;12.50;11.00;;;-1.00;89.60;;;;;;10551974;28;20636;-80
2023/02/08 03:54:35;;;;;;;12.30;11.00;;;-0.90;89.70;;;;;;10618062;27;20198;-77
2023/02/08 03:59:40;;;;;;;12.90;11.30;;;-0.90;89.60;;;;;;10528179;28;20845;-77
2023/02/08 04:04:46;;;;;;;14.10;12.70;;;-0.80;89.10;;;;;;10558311;28;20260;-78
2023/02/08 04:09:49;;;;;;;12.90;11.70;;;-0.80;89.00;;;;;;10591503;28;20226;-80
2023/02/08 04:14:52;;;;;;;12.50;11.10;;;-0.90;89.00;;;;;;10549816;28;20223;-78
2023/02/08 04:19:54;;;;;;;14.60;12.40;;;-1.00;89.10;;;;;;10567764;28;20233;-78
2023/02/08 04:24:57;;;;;;;17.47;13.27;;;-1.00;90.00;;;;;;10567129;28;20718;-78
2023/02/08 04:29:59;;;;;;;17.10;13.73;;;-1.00;89.90;;;;;;10548591;27;20254;-78
2023/02/08 04:35:02;;;;;;;15.03;13.27;;;-0.80;90.20;;;;;;10588129;27;20289;-80
2023/02/08 04:40:06;;;;;;;15.10;12.90;;;-0.90;89.70;;;;;;10597314;27;20239;-78
2023/02/08 04:45:09;;;;;;;13.93;12.53;;;-0.90;90.60;;;;;;10544820;28;20282;-80
2023/02/08 04:50:11;;;;;;;17.17;13.80;;;-0.90;90.40;;;;;;10616855;27;20268;-79
2023/02/08 04:55:14;;;;;;;17.40;15.40;;;-0.90;90.40;;;;;;10557826;28;20259;-79
2023/02/08 05:00:17;;;;;;;17.95;15.93;;;-0.90;90.40;;;;;;10550357;27;20222;-79
2023/02/08 05:05:19;;;;;;;24.85;22.20;;;-0.80;90.20;;;;;;10560320;28;20586;-79
2023/02/08 05:10:23;;;;;;;32.00;23.00;;;-0.60;90.20;;;;;;10586643;28;20282;-79
2023/02/08 05:15:25;;;;;;;27.67;21.90;;;-0.60;89.30;;;;;;10571382;27;20198;-79
2023/02/08 05:20:28;;;;;;;25.77;22.30;;;-0.80;90.00;;;;;;10594702;27;20218;-79
2023/02/08 05:25:32;;;;;;;19.87;17.77;;;-0.90;90.10;;;;;;10592712;28;20217;-79
2023/02/08 05:30:34;;;;;;;20.23;17.97;;;-0.90;90.30;;;;;;10651344;27;20222;-78
2023/02/08 05:35:36;;;;;;;23.48;21.08;;;-1.00;90.20;;;;;;10663858;27;20207;-78
2023/02/08 05:40:39;;;;;;;23.95;21.35;;;-0.90;90.70;;;;;;10601950;28;20225;-79
2023/02/08 05:45:43;;;;;;;21.90;19.23;;;-0.60;90.00;;;;;;10564661;28;20202;-79
2023/02/08 05:50:45;;;;;;;27.90;25.00;;;-0.60;90.10;;;;;;10555641;28;20465;-79
2023/02/08 05:55:51;;;;;;;18.50;16.60;;;-0.60;89.90;;;;;;10551045;28;20198;-79
2023/02/08 06:00:53;;;;;;;18.50;16.60;;;-0.80;90.40;;;;;;10611374;27;20218;-79
2023/02/08 06:05:55;;;;;;;17.40;15.60;;;-0.90;90.60;;;;;;10623534;27;20195;-78
2023/02/08 06:10:59;;;;;;;17.53;15.70;;;-1.00;90.30;;;;;;10581248;28;20220;-79
2023/02/08 06:16:01;;;;;;;17.08;14.38;;;-1.00;90.50;;;;;;10614184;27;20288;-79
2023/02/08 06:21:04;;;;;;;17.30;15.57;;;-0.90;90.60;;;;;;10527026;28;20257;-78
2023/02/08 06:26:07;;;;;;;17.33;15.10;;;-0.80;89.90;;;;;;10605157;27;20201;-78
2023/02/08 06:31:09;;;;;;;16.20;14.50;;;-1.00;89.80;;;;;;10589573;27;20261;-80
2023/02/08 06:36:11;;;;;;;19.73;17.00;;;-1.10;90.00;;;;;;10550022;28;20188;-78
2023/02/08 06:41:15;;;;;;;19.23;16.20;;;-1.10;90.00;;;;;;10593847;27;20240;-78
2023/02/08 06:46:17;;;;;;;18.93;15.93;;;-1.10;90.20;;;;;;10541627;28;20195;-78
2023/02/08 06:51:19;;;;;;;18.20;15.50;;;-1.10;90.10;;;;;;10548660;28;20325;-79
2023/02/08 06:56:23;;;;;;;18.03;16.00;;;-1.20;90.90;;;;;;10521754;28;20230;-80
2023/02/08 07:01:25;;;;;;;21.80;15.47;;;-1.20;89.90;;;;;;10542299;28;20609;-78
2023/02/08 07:06:27;;;;;;;16.53;14.67;;;-1.20;90.90;;;;;;10575516;28;20199;-79
2023/02/08 07:11:38;;;;;;;18.50;15.10;;;-1.10;90.00;;;;;;10554485;28;20222;-80
2023/02/08 07:16:40;;;;;;;19.53;14.50;;;-1.10;89.30;;;;;;10536198;28;20663;-80
2023/02/08 07:21:42;;;;;;;29.37;19.20;;;-1.10;89.00;;;;;;10540220;28;20212;-80
2023/02/08 07:26:46;;;;;;;23.23;17.63;;;-1.10;88.70;;;;;;10561781;28;20191;-77
2023/02/08 07:31:49;;;;;;;30.08;19.55;;;-1.10;89.40;;;;;;10555454;28;20278;-78
2023/02/08 07:36:51;;;;;;;22.33;18.70;;;-1.00;88.70;;;;;;10526439;28;20373;-80
2023/02/08 07:41:54;;;;;;;18.80;15.87;;;-0.90;89.40;;;;;;10558563;28;20235;-80
2023/02/08 07:46:57;;;;;;;19.50;15.87;;;-0.90;88.30;;;;;;10542717;28;20304;-77
2023/02/08 07:52:00;;;;;;;27.40;18.40;;;-0.90;87.90;;;;;;10560777;28;20234;-79
2023/02/08 07:57:03;;;;;;;19.03;16.93;;;-0.90;88.40;;;;;;10560006;28;20195;-79
2023/02/08 08:02:06;;;;;;;19.90;16.73;;;-0.90;89.40;;;;;;10551589;28;20245;-79
2023/02/08 08:07:08;;;;;;;20.40;15.93;;;-0.80;87.30;;;;;;10577126;28;20191;-79
2023/02/08 08:12:11;;;;;;;21.20;16.90;;;-0.70;88.90;;;;;;10575509;28;20613;-79
2023/02/08 08:17:13;;;;;;;20.70;17.93;;;-0.50;89.20;;;;;;10576334;28;20208;-79
2023/02/08 08:22:15;;;;;;;19.43;17.43;;;-0.30;88.60;;;;;;10564148;28;20215;-78
2023/02/08 08:27:19;;;;;;;22.80;18.73;;;-0.20;88.90;;;;;;10548287;28;20196;-79
2023/02/08 08:32:21;;;;;;;26.83;18.00;;;-0.20;90.10;;;;;;10556552;27;20303;-79
2023/02/08 08:37:23;;;;;;;19.30;17.30;;;-0.10;88.00;;;;;;10552166;28;20230;-79
2023/02/08 08:42:27;;;;;;;20.97;18.70;;;0.00;90.00;;;;;;10556590;28;20222;-80
2023/02/08 08:47:29;;;;;;;20.30;18.07;;;0.10;91.00;;;;;;10553004;28;20293;-81
2023/02/08 08:52:31;;;;;;;21.10;17.93;;;0.40;90.70;;;;;;10580853;28;20469;-80
2023/02/08 08:57:34;;;;;;;20.83;16.47;;;0.60;90.30;;;;;;10545994;28;20203;-81
2023/02/08 09:02:36;;;;;;;24.47;17.47;;;0.80;88.70;;;;;;10546317;28;20336;-81
2023/02/08 09:07:38;;;;;;;29.48;16.10;;;0.90;87.70;;;;;;10560428;28;20201;-80
2023/02/08 09:12:42;;;;;;;22.00;16.87;;;1.20;88.30;;;;;;10574267;28;20227;-80
2023/02/08 09:17:44;;;;;;;21.97;15.20;;;1.40;87.60;;;;;;10566134;28;20718;-80
2023/02/08 09:22:46;;;;;;;17.33;14.90;;;1.70;82.40;;;;;;10578896;28;20445;-80
2023/02/08 09:27:49;;;;;;;19.73;16.50;;;1.80;83.80;;;;;;10553762;28;20200;-79
2023/02/08 09:32:51;;;;;;;20.90;16.50;;;1.80;85.20;;;;;;10552328;28;20722;-80
2023/02/08 09:37:56;;;;;;;20.03;15.90;;;1.90;84.00;;;;;;10552500;28;20203;-80
2023/02/08 09:43:08;;;;;;;18.40;14.80;;;2.00;84.00;;;;;;10551412;28;20319;-77
2023/02/08 09:48:20;;;;;;;21.20;16.10;;;2.10;81.40;;;;;;10551959;28;20202;-79
2023/02/08 09:53:31;;;;;;;18.90;16.83;;;2.10;83.60;;;;;;10569669;28;20246;-79
2023/02/08 09:58:39;;;;;;;20.07;17.57;;;2.30;83.20;;;;;;10547546;28;20215;-79
2023/02/08 10:03:43;;;;;;;17.67;15.87;;;2.50;80.80;;;;;;10556882;28;20238;-79
2023/02/08 10:08:48;;;;;;;18.20;15.37;;;2.70;74.20;;;;;;10557640;28;20189;-82
2023/02/08 10:14:21;;;;;;;20.47;16.70;;;2.50;79.70;;;;;;10533719;28;20219;-79
2023/02/08 10:19:43;;;;;;;17.67;15.63;;;2.70;82.50;;;;;;10573762;28;20458;-78
2023/02/08 10:25:14;;;;;;;23.80;17.13;;;2.70;77.50;;;;;;10555121;28;20290;-81
2023/02/08 10:30:28;;;;;;;18.80;16.40;;;2.60;78.70;;;;;;10575285;28;20302;-79
2023/02/08 10:35:35;;;;;;;20.30;16.17;;;2.60;82.40;;;;;;10541341;28;20204;-80
2023/02/08 10:40:40;;;;;;;31.63;16.50;;;2.90;79.60;;;;;;10578231;28;20495;-80
2023/02/08 10:45:52;;;;;;;18.17;15.00;;;2.90;80.00;;;;;;10555084;28;20192;-76
2023/02/08 10:50:54;;;;;;;21.83;17.40;;;2.90;77.10;;;;;;10555317;28;20224;-78
2023/02/08 10:55:57;;;;;;;17.07;15.10;;;2.90;78.20;;;;;;10549930;28;20612;-79
2023/02/08 11:01:02;;;;;;;17.97;14.23;;;2.90;78.50;;;;;;10538851;28;20233;-78
2023/02/08 11:06:05;;;;;;;16.20;13.57;;;3.00;79.60;;;;;;10542574;28;20207;-78
2023/02/08 11:11:09;;;;;;;17.27;14.17;;;3.00;81.60;;;;;;10579885;28;20230;-79
2023/02/08 11:16:20;;;;;;;16.77;14.00;;;3.10;80.30;;;;;;10586104;28;20191;-78
2023/02/08 11:21:24;;;;;;;15.40;13.80;;;3.10;81.10;;;;;;10579300;28;20678;-79
2023/02/08 11:26:33;;;;;;;20.00;14.23;;;3.20;80.10;;;;;;10582107;28;20202;-79
2023/02/08 11:31:36;;;;;;;14.63;13.13;;;3.50;78.70;;;;;;10577493;28;20215;-78
2023/02/08 11:36:46;;;;;;;16.15;12.75;;;3.60;80.40;;;;;;10560058;28;20211;-78
2023/02/08 11:41:51;;;;;;;15.32;13.38;;;3.70;75.40;;;;;;10547376;28;20222;-78
2023/02/08 11:46:57;;;;;;;34.60;15.23;;;4.00;72.70;;;;;;10593003;28;20212;-78
2023/02/08 11:51:59;;;;;;;24.48;14.00;;;4.00;73.90;;;;;;10601474;28;20254;-78
2023/02/08 11:57:03;;;;;;;23.57;13.13;;;4.00;77.80;;;;;;10621844;28;20201;-78
2023/02/08 12:02:27;;;;;;;18.80;13.00;;;4.00;79.40;;;;;;10615171;28;20247;-78
2023/02/08 12:07:38;;;;;;;15.07;12.50;;;4.00;74.80;;;;;;10613850;27;20708;-78
2023/02/08 12:12:54;;;;;;;12.60;11.23;;;4.00;77.60;;;;;;10609758;27;20724;-78
2023/02/08 12:18:12;;;;;;;14.80;10.77;;;4.00;73.60;;;;;;10607579;27;20304;-77
2023/02/08 12:23:28;;;;;;;14.33;11.30;;;4.10;72.60;;;;;;10576762;27;20223;-77
2023/02/08 12:28:42;;;;;;;12.40;11.10;;;4.10;74.80;;;;;;10555043;27;20204;-78
2023/02/08 12:33:58;;;;;;;28.47;11.20;;;4.10;76.70;;;;;;10606265;27;20222;-77
2023/02/08 12:44:40;;;;;;;12.17;10.97;;;4.30;72.50;;;;;;10589023;27;20198;-78
2023/02/08 12:49:57;;;;;;;13.70;10.60;;;4.30;75.50;;;;;;10620607;27;20219;-78
2023/02/08 12:55:07;;;;;;;12.68;9.93;;;4.30;75.50;;;;;;10555728;27;20626;-78
2023/02/08 13:00:19;;;;;;;10.80;9.75;;;4.50;74.70;;;;;;10587601;27;20219;-78
2023/02/08 13:05:23;;;;;;;15.87;11.07;;;4.90;72.20;;;;;;10571275;27;20249;-78
2023/02/08 13:16:01;;;;;;;11.93;10.63;;;4.80;74.00;;;;;;10581507;27;20199;-79
2023/02/08 13:21:11;;;;;;;10.40;9.30;;;4.80;71.50;;;;;;10575112;28;20224;-79
2023/02/08 13:26:21;;;;;;;10.70;9.40;;;4.80;75.30;;;;;;10609320;27;20312;-78
2023/02/08 13:31:26;;;;;;;11.13;9.97;;;4.80;75.60;;;;;;10640588;27;20293;-79
2023/02/08 13:36:33;;;;;;;11.47;10.00;;;4.80;73.60;;;;;;10631703;27;20207;-79
2023/02/08 13:41:36;;;;;;;11.47;10.10;;;4.80;75.70;;;;;;10618234;27;20216;-77
2023/02/08 13:46:45;;;;;;;11.77;9.77;;;4.80;72.50;;;;;;10601391;27;20209;-80
2023/02/08 13:51:54;;;;;;;10.47;9.07;;;5.00;75.80;;;;;;10644338;27;20321;-79
2023/02/08 13:56:57;;;;;;;12.50;8.77;;;5.00;75.10;;;;;;10611488;27;20202;-77
2023/02/08 14:02:27;;;;;;;10.53;8.20;;;5.10;71.90;;;;;;10618638;27;20228;-78
2023/02/08 14:07:40;;;;;;;10.07;8.13;;;5.20;71.00;;;;;;10629215;27;20409;-79
2023/02/08 14:12:52;;;;;;;10.13;9.13;;;5.20;75.40;;;;;;10592629;28;20250;-78
2023/02/08 14:17:58;;;;;;;10.93;8.23;;;5.30;73.20;;;;;;10608439;28;20192;-79
2023/02/08 14:23:03;;;;;;;12.20;8.63;;;5.10;75.10;;;;;;10617971;28;20582;-79
2023/02/08 14:28:07;;;;;;;13.93;10.27;;;5.20;71.80;;;;;;10600416;28;20187;-80
2023/02/08 14:33:15;;;;;;;16.10;9.93;;;5.10;76.00;;;;;;10562285;28;20281;-81
2023/02/08 14:38:51;;;;;;;11.77;10.17;;;5.10;78.40;;;;;;10606452;27;20231;-79
2023/02/08 14:43:53;;;;;;;16.63;12.13;;;5.00;77.50;;;;;;10629942;27;20223;-80
2023/02/08 14:48:56;;;;;;;13.93;11.43;;;5.20;71.80;;;;;;10582167;28;20196;-79
2023/02/08 14:54:10;;;;;;;13.23;10.93;;;5.10;74.70;;;;;;10578351;28;20232;-79
2023/02/08 14:59:16;;;;;;;17.53;12.10;;;5.00;79.30;;;;;;10610777;27;20708;-79
2023/02/08 15:04:20;;;;;;;12.80;10.70;;;5.10;73.70;;;;;;10577895;28;20566;-78
2023/02/08 15:09:25;;;;;;;12.07;10.80;;;5.10;74.70;;;;;;10564648;28;20242;-79
2023/02/08 15:14:28;;;;;;;12.93;11.60;;;5.00;76.00;;;;;;10526873;28;20250;-78
2023/02/08 15:19:33;;;;;;;13.30;11.90;;;5.10;74.40;;;;;;10553775;28;20720;-77
2023/02/08 15:24:37;;;;;;;13.60;10.83;;;5.10;72.30;;;;;;10560333;28;20211;-78
2023/02/08 15:29:42;;;;;;;22.80;15.90;;;4.90;76.70;;;;;;10553258;28;20223;-78
2023/02/08 15:34:46;;;;;;;15.07;13.47;;;4.90;78.30;;;;;;10559914;28;20219;-80
2023/02/08 15:39:52;;;;;;;11.80;10.30;;;5.00;73.00;;;;;;10532631;28;20254;-78
2023/02/08 15:44:55;;;;;;;18.03;14.00;;;4.90;75.10;;;;;;10527124;28;20192;-78
2023/02/08 15:49:58;;;;;;;16.27;13.93;;;4.80;74.90;;;;;;10531333;28;20239;-78
2023/02/08 15:55:02;;;;;;;21.53;13.27;;;4.90;72.90;;;;;;10514462;28;20302;-78
2023/02/08 16:00:12;;;;;;;15.20;13.20;;;4.80;73.80;;;;;;10599799;27;20246;-78
2023/02/08 16:05:21;;;;;;;18.90;14.30;;;4.70;76.40;;;;;;10543590;28;20644;-78
2023/02/08 16:10:32;;;;;;;16.20;14.20;;;4.60;75.90;;;;;;10551423;28;20655;-80
2023/02/08 16:15:43;;;;;;;19.00;15.23;;;4.50;78.80;;;;;;10573463;27;20216;-78
2023/02/08 16:20:56;;;;;;;17.97;15.50;;;4.50;77.50;;;;;;10605773;27;20227;-78
2023/02/08 16:26:13;;;;;;;17.70;15.10;;;4.50;75.30;;;;;;10593355;28;20199;-79
2023/02/08 16:31:21;;;;;;;23.67;17.77;;;4.40;76.30;;;;;;10567244;28;20219;-80
2023/02/08 16:36:32;;;;;;;20.20;17.00;;;4.40;75.70;;;;;;10582964;28;20225;-79
2023/02/08 16:42:00;;;;;;;23.17;16.50;;;4.20;77.40;;;;;;10607277;28;20283;-80
2023/02/08 16:47:28;;;;;;;20.00;16.67;;;4.20;78.40;;;;;;10600484;28;20214;-78
2023/02/08 16:52:39;;;;;;;19.95;17.48;;;4.00;79.40;;;;;;10545030;28;21207;-78
2023/02/08 16:57:45;;;;;;;20.52;17.77;;;4.00;79.50;;;;;;10601078;28;20269;-78
2023/02/08 17:02:47;;;;;;;21.67;17.30;;;4.10;79.50;;;;;;10553644;28;20203;-78
2023/02/08 17:07:50;;;;;;;38.33;24.27;;;4.00;79.60;;;;;;10571628;28;20227;-78
2023/02/08 17:12:54;;;;;;;29.38;23.80;;;3.70;81.20;;;;;;10566081;28;20682;-78
2023/02/08 17:17:57;;;;;;;24.27;16.53;;;3.70;80.80;;;;;;10533391;28;20205;-79
2023/02/08 17:23:01;;;;;;;21.10;17.77;;;3.50;80.90;;;;;;10570281;28;20294;-79
2023/02/08 17:28:07;;;;;;;21.23;18.07;;;3.30;81.90;;;;;;10579718;28;20206;-78
2023/02/08 17:33:16;;;;;;;24.83;18.83;;;3.20;82.00;;;;;;10586143;28;20367;-79
2023/02/08 17:38:19;;;;;;;26.93;20.40;;;3.10;83.10;;;;;;10593742;28;20210;-78
2023/02/08 17:43:24;;;;;;;24.92;20.17;;;3.00;84.20;;;;;;10605882;28;20206;-78
2023/02/08 17:48:26;;;;;;;21.60;18.43;;;3.10;83.50;;;;;;10576102;28;20200;-78
2023/02/08 17:53:29;;;;;;;23.53;19.20;;;3.10;82.50;;;;;;10612041;28;20243;-78
2023/02/08 17:58:33;;;;;;;24.40;20.37;;;2.90;84.70;;;;;;10627221;28;20183;-78
2023/02/08 18:03:35;;;;;;;29.10;21.83;;;2.90;84.20;;;;;;10575572;28;20222;-79
2023/02/08 18:08:38;;;;;;;29.17;20.47;;;2.90;84.10;;;;;;10608045;27;20214;-78
2023/02/08 18:13:41;;;;;;;21.17;18.97;;;2.80;84.60;;;;;;10586221;27;20230;-78
2023/02/08 18:18:44;;;;;;;23.70;18.63;;;2.70;85.00;;;;;;10579084;28;20210;-79
2023/02/08 18:23:48;;;;;;;27.90;19.63;;;2.70;84.50;;;;;;10553694;28;20211;-78
2023/02/08 18:28:52;;;;;;;24.80;20.27;;;2.60;84.60;;;;;;10587668;28;20564;-78
2023/02/08 18:33:55;;;;;;;21.23;18.77;;;2.50;86.60;;;;;;10584210;27;20298;-79
2023/02/08 18:38:57;;;;;;;24.53;19.93;;;2.40;86.10;;;;;;10570772;28;20511;-81
2023/02/08 18:44:01;;;;;;;34.20;28.43;;;2.40;86.00;;;;;;10589294;27;20240;-77
2023/02/08 18:49:04;;;;;;;23.17;19.47;;;2.30;88.20;;;;;;10577205;27;20191;-79
2023/02/08 18:54:06;;;;;;;27.20;22.50;;;2.40;87.10;;;;;;10632324;27;20677;-79
2023/02/08 18:59:11;;;;;;;23.10;19.90;;;2.30;86.60;;;;;;10597155;27;20198;-80
2023/02/08 19:04:13;;;;;;;24.87;21.60;;;2.30;86.60;;;;;;10617673;28;20207;-80
2023/02/08 19:09:15;;;;;;;25.53;20.93;;;2.20;86.60;;;;;;10555130;28;20249;-76
2023/02/08 19:14:19;;;;;;;30.40;23.07;;;2.20;87.30;;;;;;10583024;28;20770;-79
2023/02/08 19:19:21;;;;;;;27.53;23.57;;;2.20;87.10;;;;;;10598013;27;20251;-80
2023/02/08 19:24:23;;;;;;;31.07;24.47;;;2.20;87.40;;;;;;10584765;27;20209;-79
2023/02/08 19:29:26;;;;;;;26.80;22.50;;;2.30;88.40;;;;;;10598570;27;20722;-77
2023/02/08 19:34:29;;;;;;;23.80;20.67;;;2.50;87.60;;;;;;10618315;27;20222;-77
2023/02/08 19:39:31;;;;;;;25.67;21.20;;;2.50;87.60;;;;;;10570433;28;20219;-78
2023/02/08 19:44:34;;;;;;;26.23;22.13;;;2.50;87.00;;;;;;10589437;27;20226;-78
2023/02/08 19:49:36;;;;;;;22.87;20.47;;;2.50;85.80;;;;;;10612757;27;20227;-79
2023/02/08 19:54:38;;;;;;;27.17;20.50;;;2.50;86.00;;;;;;10578250;27;20516;-79
2023/02/08 19:59:43;;;;;;;30.23;24.65;;;2.30;86.50;;;;;;10564879;28;20706;-79
2023/02/08 20:04:45;;;;;;;27.43;22.30;;;2.30;85.90;;;;;;10599886;27;20231;-79
2023/02/08 20:09:47;;;;;;;27.40;21.83;;;2.20;87.40;;;;;;10591403;28;20268;-79
2023/02/08 20:14:50;;;;;;;22.07;19.67;;;2.00;86.20;;;;;;10597483;27;20222;-78
2023/02/08 20:19:53;;;;;;;25.60;21.87;;;1.80;86.80;;;;;;10582850;27;20223;-81
2023/02/08 20:24:55;;;;;;;22.35;19.25;;;1.70;87.10;;;;;;10585767;28;20201;-81
2023/02/08 20:29:58;;;;;;;24.70;20.63;;;1.80;87.00;;;;;;10588858;27;20258;-78
2023/02/08 20:35:00;;;;;;;22.67;19.83;;;1.70;86.50;;;;;;10592168;28;20686;-78
2023/02/08 20:40:03;;;;;;;30.00;24.50;;;1.60;88.30;;;;;;10592313;27;20262;-78
2023/02/08 20:45:07;;;;;;;27.00;22.40;;;1.50;87.50;;;;;;10574352;28;20199;-78
2023/02/08 20:50:09;;;;;;;26.20;21.90;;;1.40;89.00;;;;;;10568668;28;20223;-78
2023/02/08 20:55:12;;;;;;;25.60;22.80;;;1.40;88.40;;;;;;10559642;28;20233;-78
2023/02/08 21:00:16;;;;;;;22.75;20.27;;;1.40;88.00;;;;;;10581702;28;20223;-78
2023/02/08 21:05:18;;;;;;;21.50;19.13;;;1.60;87.80;;;;;;10562679;28;20209;-78
2023/02/08 21:10:20;;;;;;;22.57;20.03;;;1.60;87.90;;;;;;10583896;28;20622;-78
2023/02/08 21:15:24;;;;;;;23.77;21.10;;;1.40;88.20;;;;;;10561341;28;20227;-78
2023/02/08 21:20:26;;;;;;;22.73;20.43;;;1.30;88.30;;;;;;10586593;28;20226;-78
2023/02/08 21:25:28;;;;;;;34.10;25.00;;;1.20;88.10;;;;;;10616090;27;20640;-78
2023/02/08 21:30:31;;;;;;;34.67;29.63;;;1.10;88.80;;;;;;10595762;27;20227;-78
2023/02/08 21:35:35;;;;;;;22.20;19.80;;;1.00;88.20;;;;;;10580288;28;20226;-78
2023/02/08 21:40:37;;;;;;;27.23;23.67;;;1.10;88.10;;;;;;10524428;28;20470;-78
2023/02/08 21:45:40;;;;;;;24.55;21.17;;;1.10;88.80;;;;;;10553321;27;20283;-78
2023/02/08 21:56:13;;;;;;;25.63;21.30;;;1.00;88.10;;;;;;10486049;28;20231;-77
2023/02/08 22:01:17;;;;;;;23.53;19.97;;;0.80;88.40;;;;;;10614669;27;20234;-78
2023/02/08 22:11:48;;;;;;;22.00;19.67;;;0.70;88.70;;;;;;10521601;28;20213;-79
2023/02/08 22:16:50;;;;;;;23.10;19.17;;;0.60;90.00;;;;;;10534570;28;20204;-79
2023/02/08 22:21:53;;;;;;;50.43;37.93;;;0.60;89.80;;;;;;10532536;28;20215;-78
2023/02/08 22:26:55;;;;;;;22.50;20.10;;;0.70;89.30;;;;;;10525036;28;20190;-78
2023/02/08 22:31:58;;;;;;;24.70;20.30;;;0.60;88.50;;;;;;10533237;28;20660;-78
2023/02/08 22:37:03;;;;;;;23.60;21.07;;;0.60;89.30;;;;;;10533014;28;20205;-78
2023/02/08 22:42:09;;;;;;;21.43;18.40;;;0.60;89.70;;;;;;10528689;28;20256;-78
2023/02/08 22:47:13;;;;;;;22.30;19.43;;;0.60;89.30;;;;;;10531427;28;20222;-78
2023/02/08 22:52:16;;;;;;;23.83;20.30;;;0.50;89.10;;;;;;10533106;28;20221;-79
2023/02/08 22:57:19;;;;;;;25.93;21.60;;;0.50;89.50;;;;;;10531778;28;20569;-78
2023/02/08 23:02:21;;;;;;;27.73;23.10;;;0.40;90.00;;;;;;10531786;28;20247;-78
2023/02/08 23:07:24;;;;;;;21.77;19.40;;;0.40;89.90;;;;;;10526823;28;20211;-77
2023/02/08 23:12:26;;;;;;;21.67;19.13;;;0.40;89.90;;;;;;10522091;28;20210;-78
2023/02/08 23:17:28;;;;;;;21.60;19.30;;;0.40;90.40;;;;;;10503853;28;20716;-78
2023/02/08 23:22:35;;;;;;;21.67;18.83;;;0.40;89.00;;;;;;10502748;28;20223;-78
2023/02/08 23:27:37;;;;;;;20.77;18.53;;;0.40;90.30;;;;;;10499992;28;20204;-78
2023/02/08 23:32:39;;;;;;;21.43;17.80;;;0.30;89.40;;;;;;10495515;28;20216;-78
2023/02/08 23:37:43;;;;;;;23.00;19.13;;;0.40;89.00;;;;;;10497455;28;20233;-78
2023/02/08 23:42:45;;;;;;;22.40;19.00;;;0.30;89.30;;;;;;10498749;28;20304;-79
2023/02/08 23:47:47;;;;;;;24.20;20.40;;;0.20;89.60;;;;;;10506829;28;20226;-79
2023/02/08 23:52:50;;;;;;;21.40;18.37;;;0.20;89.60;;;;;;10513907;28;20306;-78
2023/02/08 23:57:52;;;;;;;20.50;18.30;;;0.20;89.10;;;;;;10500853;28;20223;-78
